createdAt,value
2022-11-15T00:01:19.330Z,64.80
2022-11-15T00:04:05.577Z,64.77
2022-11-15T00:06:51.497Z,65.40
2022-11-15T00:09:39.907Z,64.80
2022-11-15T00:12:29.148Z,64.41
2022-11-15T00:15:15.018Z,64.52
2022-11-15T00:18:00.824Z,64.95
2022-11-15T00:20:46.386Z,65.35
2022-11-15T00:23:32.238Z,64.90
2022-11-15T00:26:19.161Z,64.95
2022-11-15T00:29:05.054Z,64.95
2022-11-15T00:31:50.830Z,64.16
2022-11-15T00:34:36.696Z,64.61
2022-11-15T00:37:22.714Z,64.66
2022-11-15T00:40:09.447Z,65.12
2022-11-15T00:42:55.000Z,64.68
2022-11-15T00:45:40.785Z,65.56
2022-11-15T00:48:26.691Z,65.16
2022-11-15T00:51:12.354Z,65.19
2022-11-15T00:53:58.488Z,65.63
2022-11-15T00:56:44.225Z,65.28
2022-11-15T00:59:30.171Z,64.74
2022-11-15T01:02:15.947Z,64.94
2022-11-15T01:05:01.563Z,65.10
2022-11-15T01:07:47.547Z,65.13
2022-11-15T01:10:33.156Z,64.41
2022-11-15T01:13:18.958Z,64.20
2022-11-15T01:16:08.579Z,63.87
2022-11-15T01:18:54.610Z,64.28
2022-11-15T01:21:40.429Z,64.65
2022-11-15T01:24:26.374Z,64.31
2022-11-15T01:27:12.858Z,64.05
2022-11-15T01:29:58.603Z,64.02
2022-11-15T01:32:44.390Z,64.40
2022-11-15T01:35:30.137Z,64.49
2022-11-15T01:38:15.743Z,64.50
2022-11-15T01:41:01.499Z,64.22
2022-11-15T01:43:50.036Z,63.96
2022-11-15T01:46:36.531Z,63.87
2022-11-15T01:49:23.804Z,63.82
2022-11-15T01:52:16.410Z,63.97
2022-11-15T01:55:24.008Z,63.63
2022-11-15T01:58:09.954Z,63.98
2022-11-15T02:00:55.545Z,63.93
2022-11-15T02:03:59.568Z,63.80
2022-11-15T02:06:46.653Z,63.80
2022-11-15T02:09:32.782Z,64.31
2022-11-15T02:12:20.793Z,63.89
2022-11-15T02:15:08.205Z,63.58
2022-11-15T02:18:17.699Z,64.00
2022-11-15T02:21:26.189Z,64.00
2022-11-15T02:24:30.746Z,63.95
2022-11-15T02:27:33.216Z,63.97
2022-11-15T02:30:39.266Z,64.30
2022-11-15T02:33:57.787Z,64.37
2022-11-15T02:36:53.347Z,63.94
2022-11-15T02:39:53.032Z,64.26
2022-11-15T02:43:07.975Z,64.07
2022-11-15T02:46:09.312Z,63.39
2022-11-15T02:48:55.194Z,63.60
2022-11-15T02:51:41.997Z,63.53
2022-11-15T02:54:31.369Z,63.73
2022-11-15T02:57:18.993Z,63.48
2022-11-15T03:00:11.410Z,63.36
2022-11-15T03:03:28.070Z,63.53
2022-11-15T03:06:22.297Z,63.38
2022-11-15T03:09:52.789Z,63.58
2022-11-15T03:12:46.956Z,63.56
2022-11-15T03:15:39.477Z,63.64
2022-11-15T03:18:44.816Z,63.34
2022-11-15T03:21:31.465Z,63.64
2022-11-15T03:24:24.720Z,63.59
2022-11-15T03:27:14.459Z,63.50
2022-11-15T03:30:03.630Z,63.81
2022-11-15T03:32:55.931Z,63.88
2022-11-15T03:35:44.432Z,63.87
2022-11-15T03:38:31.522Z,63.27
2022-11-15T03:41:32.428Z,63.26
2022-11-15T03:44:39.588Z,63.19
2022-11-15T03:47:30.237Z,63.38
2022-11-15T03:50:20.422Z,63.42
2022-11-15T03:53:06.649Z,63.71
2022-11-15T03:55:52.395Z,63.62
2022-11-15T03:58:38.149Z,64.57
2022-11-15T04:01:23.920Z,64.93
2022-11-15T04:04:09.565Z,64.49
2022-11-15T04:06:55.246Z,64.12
2022-11-15T04:09:59.495Z,64.42
2022-11-15T04:12:48.543Z,64.41
2022-11-15T04:15:34.482Z,64.72
2022-11-15T04:18:20.598Z,64.28
2022-11-15T04:21:25.230Z,64.51
2022-11-15T04:24:13.944Z,64.11
2022-11-15T04:26:59.850Z,63.94
2022-11-15T04:29:45.507Z,64.10
2022-11-15T04:32:31.281Z,64.02
2022-11-15T04:35:17.053Z,63.38
2022-11-15T04:38:04.127Z,63.27
2022-11-15T04:40:50.291Z,63.78
2022-11-15T04:43:36.369Z,64.10
2022-11-15T04:46:23.137Z,64.00
2022-11-15T04:49:09.098Z,64.36
2022-11-15T04:51:54.814Z,63.60
2022-11-15T04:54:40.523Z,64.20
2022-11-15T04:57:26.554Z,63.63
2022-11-15T05:00:14.719Z,63.95
2022-11-15T05:03:19.010Z,64.56
2022-11-15T05:06:05.114Z,63.92
2022-11-15T05:08:50.912Z,63.94
2022-11-15T05:11:36.936Z,64.17
2022-11-15T05:14:22.715Z,64.79
2022-11-15T05:17:08.345Z,63.98
2022-11-15T05:19:54.107Z,63.81
2022-11-15T05:22:40.078Z,63.76
2022-11-15T05:25:26.295Z,63.82
2022-11-15T05:28:12.166Z,63.76
2022-11-15T05:31:09.166Z,63.77
2022-11-15T05:33:56.436Z,63.22
2022-11-15T05:36:44.188Z,63.56
2022-11-15T05:39:30.159Z,63.80
2022-11-15T05:42:16.313Z,63.51
2022-11-15T05:45:04.174Z,63.60
2022-11-15T05:47:50.530Z,64.70
2022-11-15T05:50:42.658Z,64.82
2022-11-15T05:53:28.673Z,63.86
2022-11-15T05:56:15.201Z,63.97
2022-11-15T05:59:01.000Z,63.33
2022-11-15T06:01:46.935Z,63.79
2022-11-15T06:04:33.214Z,63.85
2022-11-15T06:07:18.880Z,63.86
2022-11-15T06:10:05.033Z,64.06
2022-11-15T06:13:00.766Z,64.02
2022-11-15T06:15:46.959Z,64.21
2022-11-15T06:18:34.368Z,64.54
2022-11-15T06:21:20.299Z,64.85
2022-11-15T06:24:06.381Z,64.42
2022-11-15T06:26:52.320Z,64.34
2022-11-15T06:29:38.214Z,64.33
2022-11-15T06:32:24.190Z,64.69
2022-11-15T06:35:09.930Z,64.14
2022-11-15T06:37:55.892Z,63.90
2022-11-15T06:40:41.578Z,64.26
2022-11-15T06:43:27.404Z,64.32
2022-11-15T06:46:13.273Z,63.80
2022-11-15T06:48:59.063Z,63.77
2022-11-15T06:51:44.836Z,63.80
2022-11-15T06:54:30.558Z,63.60
2022-11-15T06:57:16.206Z,63.70
2022-11-15T07:00:02.304Z,63.66
2022-11-15T07:02:48.187Z,63.74
2022-11-15T07:05:34.341Z,63.93
2022-11-15T07:08:20.454Z,64.15
2022-11-15T07:11:08.000Z,63.59
2022-11-15T07:13:53.781Z,63.66
2022-11-15T07:16:39.386Z,63.61
2022-11-15T07:19:25.574Z,63.64
2022-11-15T07:22:11.657Z,63.88
2022-11-15T07:24:57.647Z,64.60
2022-11-15T07:27:43.907Z,64.18
2022-11-15T07:30:30.252Z,63.62
2022-11-15T07:33:15.886Z,63.02
2022-11-15T07:36:03.071Z,62.20
2022-11-15T07:38:49.051Z,63.00
2022-11-15T07:41:34.822Z,63.05
2022-11-15T07:44:20.747Z,62.92
2022-11-15T07:47:06.443Z,62.31
2022-11-15T07:49:53.069Z,62.45
2022-11-15T07:52:39.260Z,70.70
2022-11-15T07:55:26.036Z,66.51
2022-11-15T07:58:13.043Z,62.02
2022-11-15T08:00:58.771Z,61.63
2022-11-15T08:03:44.837Z,61.59
2022-11-15T08:06:31.086Z,61.41
2022-11-15T08:09:17.023Z,61.39
2022-11-15T08:12:02.613Z,61.30
2022-11-15T08:14:48.365Z,61.31
2022-11-15T08:17:34.878Z,61.04
2022-11-15T08:20:20.980Z,60.72
2022-11-15T08:23:08.548Z,60.66
2022-11-15T08:26:00.340Z,60.90
2022-11-15T08:28:45.995Z,60.80
2022-11-15T08:31:31.898Z,61.44
2022-11-15T08:34:17.619Z,61.43
2022-11-15T08:37:03.098Z,61.51
2022-11-15T08:39:49.070Z,61.40
2022-11-15T08:42:34.824Z,61.14
2022-11-15T08:45:20.687Z,60.88
2022-11-15T08:48:06.880Z,61.52
2022-11-15T08:50:56.730Z,61.48
2022-11-15T08:53:43.053Z,61.80
2022-11-15T08:56:28.927Z,62.49
2022-11-15T08:59:14.562Z,62.31
2022-11-15T09:02:00.429Z,62.36
2022-11-15T09:04:46.630Z,62.50
2022-11-15T09:07:32.793Z,62.30
2022-11-15T09:10:18.697Z,62.08
2022-11-15T09:13:04.416Z,61.77
2022-11-15T09:15:50.131Z,61.59
2022-11-15T09:18:35.959Z,61.65
2022-11-15T09:21:21.882Z,61.09
2022-11-15T09:24:07.685Z,61.20
2022-11-15T09:26:53.275Z,61.32
2022-11-15T09:29:38.963Z,61.10
2022-11-15T09:32:24.982Z,61.12
2022-11-15T09:35:10.619Z,60.98
2022-11-15T09:37:58.661Z,61.74
2022-11-15T09:40:44.506Z,61.80
2022-11-15T09:43:37.153Z,62.59
2022-11-15T09:46:34.878Z,62.52
2022-11-15T09:49:05.217Z,62.55
2022-11-15T09:51:48.054Z,64.35
2022-11-15T09:54:52.327Z,62.12
2022-11-15T09:57:22.925Z,61.84
2022-11-15T10:00:44.651Z,61.74
2022-11-15T10:03:13.074Z,61.55
2022-11-15T10:05:46.181Z,61.00
2022-11-15T10:08:32.498Z,61.46
2022-11-15T10:11:35.573Z,61.04
2022-11-15T10:13:51.712Z,61.41
2022-11-15T10:16:34.140Z,61.41
2022-11-15T10:19:10.718Z,60.92
2022-11-15T10:21:40.935Z,61.39
2022-11-15T10:24:12.725Z,61.46
2022-11-15T10:26:47.304Z,61.03
2022-11-15T10:29:27.237Z,61.32
2022-11-15T10:31:54.708Z,61.33
2022-11-15T10:34:24.556Z,61.39
2022-11-15T10:36:59.926Z,61.41
2022-11-15T10:39:28.113Z,60.91
2022-11-15T10:41:55.632Z,61.14
2022-11-15T10:44:32.267Z,61.11
2022-11-15T10:46:59.793Z,61.06
2022-11-15T10:49:29.782Z,60.99
2022-11-15T10:52:20.287Z,60.35
2022-11-15T10:55:05.652Z,61.11
2022-11-15T10:57:36.882Z,60.37
2022-11-15T11:00:08.709Z,60.87
2022-11-15T11:02:40.461Z,61.06
2022-11-15T11:05:26.735Z,60.79
2022-11-15T11:08:03.480Z,60.67
2022-11-15T11:13:31.111Z,60.49
2022-11-15T11:16:16.620Z,60.18
2022-11-15T11:18:58.942Z,60.46
2022-11-15T11:21:32.092Z,60.73
2022-11-15T11:24:26.431Z,60.66
2022-11-15T11:27:15.110Z,60.57
2022-11-15T11:30:01.150Z,61.01
2022-11-15T11:32:31.716Z,60.53
2022-11-15T11:35:19.747Z,60.76
2022-11-15T11:37:51.394Z,61.41
2022-11-15T11:40:40.089Z,61.19
2022-11-15T11:43:17.739Z,60.76
2022-11-15T11:46:00.079Z,60.84
2022-11-15T11:48:42.986Z,61.54
2022-11-15T11:51:24.786Z,61.26
2022-11-15T11:54:07.154Z,61.21
2022-11-15T11:56:36.316Z,61.29
2022-11-15T11:59:35.647Z,61.35
2022-11-15T12:02:40.552Z,61.16
2022-11-15T12:05:16.933Z,61.29
2022-11-15T12:07:47.011Z,61.61
2022-11-15T12:10:25.076Z,61.78
2022-11-15T12:13:01.889Z,61.55
2022-11-15T12:15:34.164Z,61.78
2022-11-15T12:18:02.657Z,62.22
2022-11-15T12:20:34.956Z,61.79
2022-11-15T12:23:07.122Z,67.57
2022-11-15T12:25:40.489Z,65.31
2022-11-15T12:28:14.328Z,62.71
2022-11-15T12:30:50.545Z,61.77
2022-11-15T12:33:38.803Z,61.91
2022-11-15T12:36:39.351Z,62.06
2022-11-15T12:39:09.694Z,61.93
2022-11-15T12:41:39.723Z,62.03
2022-11-15T12:44:33.801Z,61.69
2022-11-15T12:47:12.290Z,61.95
2022-11-15T12:49:39.476Z,62.13
2022-11-15T12:52:08.918Z,62.20
2022-11-15T12:54:42.331Z,62.01
2022-11-15T12:57:16.059Z,61.78
2022-11-15T12:59:58.755Z,61.81
2022-11-15T13:02:46.169Z,62.40
2022-11-15T13:05:16.484Z,62.12
2022-11-15T13:07:43.999Z,61.97
2022-11-15T13:10:11.414Z,62.07
2022-11-15T13:12:41.362Z,62.72
2022-11-15T13:15:15.002Z,62.48
2022-11-15T13:17:47.960Z,62.67
2022-11-15T13:20:15.471Z,62.66
2022-11-15T13:23:03.351Z,62.18
2022-11-15T13:25:39.990Z,62.31
2022-11-15T13:28:16.124Z,62.88
2022-11-15T13:31:24.055Z,62.79
2022-11-15T13:33:51.711Z,62.54
2022-11-15T13:36:26.620Z,62.65
2022-11-15T13:39:14.985Z,62.44
2022-11-15T13:41:49.408Z,62.72
2022-11-15T13:44:25.228Z,62.62
2022-11-15T13:47:15.005Z,62.34
2022-11-15T13:49:42.695Z,62.68
2022-11-15T13:52:14.900Z,62.90
2022-11-15T13:54:46.322Z,62.37
2022-11-15T13:57:20.325Z,62.52
2022-11-15T13:59:56.106Z,63.00
2022-11-15T14:02:28.561Z,63.22
2022-11-15T14:05:06.864Z,63.34
2022-11-15T14:07:40.419Z,63.06
2022-11-15T14:10:27.034Z,63.43
2022-11-15T14:12:54.366Z,63.43
2022-11-15T14:15:36.343Z,63.36
2022-11-15T14:18:04.185Z,63.30
2022-11-15T14:20:33.594Z,63.45
2022-11-15T14:23:03.393Z,63.50
2022-11-15T14:25:36.045Z,63.43
2022-11-15T14:28:25.411Z,63.54
2022-11-15T14:30:55.310Z,62.97
2022-11-15T14:33:39.854Z,63.08
2022-11-15T14:36:16.041Z,62.97
2022-11-15T14:38:43.994Z,62.85
2022-11-15T14:41:27.377Z,63.55
2022-11-15T14:43:55.103Z,63.38
2022-11-15T14:46:22.378Z,62.85
2022-11-15T14:48:49.688Z,62.60
2022-11-15T14:51:18.657Z,62.36
2022-11-15T14:53:47.070Z,62.83
2022-11-15T14:56:14.913Z,62.63
2022-11-15T14:58:43.035Z,62.80
2022-11-15T15:01:17.806Z,62.52
2022-11-15T15:03:45.414Z,62.23
2022-11-15T15:06:17.865Z,62.67
2022-11-15T15:08:48.909Z,62.94
2022-11-15T15:11:22.043Z,63.07
2022-11-15T15:13:49.611Z,62.94
2022-11-15T15:16:16.911Z,63.30
2022-11-15T15:18:44.465Z,63.39
2022-11-15T15:21:19.040Z,63.32
2022-11-15T15:23:47.661Z,63.94
2022-11-15T15:26:15.348Z,63.92
2022-11-15T15:28:42.919Z,63.70
2022-11-15T15:31:10.934Z,63.45
2022-11-15T15:33:38.568Z,63.27
2022-11-15T15:36:06.355Z,63.62
2022-11-15T15:38:34.067Z,63.64
2022-11-15T15:41:03.826Z,63.79
2022-11-15T15:43:31.105Z,63.49
2022-11-15T15:45:58.390Z,63.54
2022-11-15T15:48:25.934Z,63.60
2022-11-15T15:50:53.262Z,63.98
2022-11-15T15:53:20.618Z,63.83
2022-11-15T15:55:48.220Z,63.59
2022-11-15T15:58:15.498Z,63.52
2022-11-15T16:00:42.845Z,65.08
2022-11-15T16:03:10.468Z,64.55
2022-11-15T16:05:37.755Z,63.72
2022-11-15T16:08:05.533Z,63.73
2022-11-15T16:10:37.719Z,63.24
2022-11-15T16:13:05.234Z,63.35
2022-11-15T16:15:33.102Z,63.19
2022-11-15T16:18:01.752Z,63.77
2022-11-15T16:20:36.367Z,64.02
2022-11-15T16:23:09.973Z,63.82
2022-11-15T16:25:56.700Z,64.04
2022-11-15T16:28:28.074Z,64.12
2022-11-15T16:31:04.510Z,63.92
2022-11-15T16:33:32.804Z,64.20
2022-11-15T16:36:00.428Z,64.38
2022-11-15T16:38:27.755Z,64.22
2022-11-15T16:40:55.325Z,63.81
2022-11-15T16:43:22.662Z,64.15
2022-11-15T16:45:51.406Z,64.84
2022-11-15T16:48:28.444Z,64.57
2022-11-15T16:50:59.417Z,64.14
2022-11-15T16:53:27.570Z,63.73
2022-11-15T16:55:55.266Z,64.22
2022-11-15T16:58:23.016Z,64.17
2022-11-15T17:00:54.590Z,64.00
2022-11-15T17:03:23.768Z,64.17
2022-11-15T17:05:52.160Z,64.18
2022-11-15T17:08:21.703Z,63.94
2022-11-15T17:10:49.110Z,64.17
2022-11-15T17:13:16.677Z,64.41
2022-11-15T17:15:43.986Z,64.89
2022-11-15T17:18:12.926Z,64.82
2022-11-15T17:20:41.559Z,65.02
2022-11-15T17:23:14.369Z,65.53
2022-11-15T17:25:43.137Z,65.38
2022-11-15T17:28:10.810Z,64.83
2022-11-15T17:30:41.902Z,64.47
2022-11-15T17:33:09.555Z,64.46
2022-11-15T17:35:37.080Z,64.33
2022-11-15T17:38:04.391Z,64.23
2022-11-15T17:40:32.014Z,64.34
2022-11-15T17:42:59.429Z,64.33
2022-11-15T17:45:26.756Z,64.43
2022-11-15T17:47:54.482Z,64.32
2022-11-15T17:50:21.776Z,64.19
2022-11-15T17:52:49.153Z,64.56
2022-11-15T17:55:16.813Z,64.53
2022-11-15T17:57:44.313Z,64.38
2022-11-15T18:00:12.273Z,64.67
2022-11-15T18:02:39.906Z,64.73
2022-11-15T18:05:07.659Z,64.79
2022-11-15T18:07:35.038Z,64.23
2022-11-15T18:10:02.688Z,64.58
2022-11-15T18:12:30.052Z,64.21
2022-11-15T18:14:58.037Z,64.18
2022-11-15T18:17:25.804Z,64.01
2022-11-15T18:19:53.088Z,64.44
2022-11-15T18:22:20.589Z,64.84
2022-11-15T18:24:48.241Z,64.80
2022-11-15T18:27:15.531Z,64.80
2022-11-15T18:29:44.581Z,64.77
2022-11-15T18:32:14.964Z,64.71
2022-11-15T18:34:42.257Z,64.60
2022-11-15T18:37:09.552Z,64.61
2022-11-15T18:39:37.821Z,64.70
2022-11-15T18:42:05.334Z,64.69
2022-11-15T18:44:32.755Z,65.03
2022-11-15T18:47:00.302Z,64.67
2022-11-15T18:49:27.787Z,65.05
2022-11-15T18:51:56.038Z,65.21
2022-11-15T18:54:28.092Z,64.68
2022-11-15T18:56:57.126Z,64.68
2022-11-15T18:59:25.946Z,64.71
2022-11-15T19:01:53.224Z,65.52
2022-11-15T19:04:20.968Z,68.29
2022-11-15T19:06:49.983Z,66.59
2022-11-15T19:09:18.862Z,65.60
2022-11-15T19:11:51.486Z,65.01
2022-11-15T19:14:19.805Z,64.15
2022-11-15T19:16:52.246Z,64.85
2022-11-15T19:19:25.190Z,64.57
2022-11-15T19:21:52.804Z,65.29
2022-11-15T19:24:20.629Z,65.12
2022-11-15T19:26:47.973Z,65.50
2022-11-15T19:29:15.596Z,65.38
2022-11-15T19:31:43.443Z,65.73
2022-11-15T19:34:10.962Z,65.20
2022-11-15T19:36:40.275Z,65.65
2022-11-15T19:39:11.125Z,65.25
2022-11-15T19:41:42.075Z,70.58
2022-11-15T19:44:10.608Z,68.27
2022-11-15T19:46:38.358Z,65.49
2022-11-15T19:49:07.900Z,64.90
2022-11-15T19:51:35.461Z,64.67
2022-11-15T19:54:06.642Z,64.83
2022-11-15T19:56:34.851Z,64.96
2022-11-15T19:59:03.246Z,65.01
2022-11-15T20:01:32.466Z,64.95
2022-11-15T20:04:00.529Z,64.77
2022-11-15T20:06:30.588Z,65.21
2022-11-15T20:08:58.386Z,64.90
2022-11-15T20:11:27.282Z,65.00
2022-11-15T20:13:58.922Z,65.54
2022-11-15T20:16:26.658Z,65.98
2022-11-15T20:18:54.262Z,65.59
2022-11-15T20:21:21.881Z,65.48
2022-11-15T20:23:50.955Z,65.57
2022-11-15T20:26:19.595Z,65.65
2022-11-15T20:28:47.860Z,65.78
2022-11-15T20:31:16.225Z,65.65
2022-11-15T20:33:44.024Z,65.79
2022-11-15T20:36:13.453Z,65.39
2022-11-15T20:38:41.098Z,65.57
2022-11-15T20:41:08.806Z,65.70
2022-11-15T20:43:36.086Z,65.92
2022-11-15T20:46:04.107Z,65.79
2022-11-15T20:48:31.820Z,65.46
2022-11-15T20:51:14.375Z,65.34
2022-11-15T20:53:43.971Z,65.34
2022-11-15T20:56:19.868Z,65.30
2022-11-15T20:58:48.204Z,65.68
2022-11-15T21:01:17.709Z,64.68
2022-11-15T21:03:45.471Z,64.80
2022-11-15T21:06:13.046Z,65.47
2022-11-15T21:08:59.063Z,65.79
2022-11-15T21:11:45.759Z,65.55
2022-11-15T21:14:13.066Z,65.56
2022-11-15T21:16:40.646Z,65.67
2022-11-15T21:19:08.106Z,65.84
2022-11-15T21:21:36.117Z,65.85
2022-11-15T21:24:05.070Z,65.86
2022-11-15T21:26:32.971Z,65.78
2022-11-15T21:29:00.369Z,65.75
2022-11-15T21:31:28.292Z,65.14
2022-11-15T21:33:55.858Z,65.05
2022-11-15T21:36:24.995Z,65.39
2022-11-15T21:38:53.591Z,65.17
2022-11-15T21:41:20.993Z,65.27
2022-11-15T21:43:48.334Z,65.36
2022-11-15T21:46:16.231Z,65.62
2022-11-15T21:48:43.562Z,65.62
2022-11-15T21:51:11.462Z,67.95
2022-11-15T21:53:39.044Z,67.46
2022-11-15T21:56:06.986Z,66.15
2022-11-15T21:58:35.125Z,64.94
2022-11-15T22:01:21.623Z,65.18
2022-11-15T22:03:49.196Z,64.91
2022-11-15T22:06:18.179Z,65.37
2022-11-15T22:08:46.093Z,65.49
2022-11-15T22:11:14.523Z,65.35
2022-11-15T22:13:42.035Z,65.41
2022-11-15T22:16:10.063Z,65.49
2022-11-15T22:18:38.693Z,65.42
2022-11-15T22:21:09.666Z,65.97
2022-11-15T22:23:37.577Z,65.26
2022-11-15T22:26:05.731Z,65.69
2022-11-15T22:28:33.487Z,66.04
2022-11-15T22:31:01.134Z,66.03
2022-11-15T22:33:30.537Z,66.04
2022-11-15T22:35:58.315Z,66.22
2022-11-15T22:38:26.653Z,65.70
2022-11-15T22:40:54.522Z,66.47
2022-11-15T22:43:24.162Z,66.00
2022-11-15T22:45:51.309Z,66.36
2022-11-15T22:48:20.762Z,66.03
2022-11-15T22:50:48.339Z,66.06
2022-11-15T22:53:15.620Z,66.35
2022-11-15T22:55:43.177Z,66.44
2022-11-15T22:58:10.524Z,65.94
2022-11-15T23:00:37.868Z,65.47
2022-11-15T23:03:05.461Z,65.93
2022-11-15T23:05:32.794Z,66.02
2022-11-15T23:08:00.082Z,66.14
2022-11-15T23:10:46.055Z,66.02
2022-11-15T23:13:16.630Z,65.60
2022-11-15T23:16:05.297Z,65.64
2022-11-15T23:18:41.673Z,65.95
2022-11-15T23:21:14.605Z,66.33
2022-11-15T23:23:42.119Z,66.27
2022-11-15T23:26:09.714Z,65.71
2022-11-15T23:28:37.010Z,65.52
2022-11-15T23:31:26.573Z,66.01
2022-11-15T23:34:00.170Z,66.29
2022-11-15T23:36:28.352Z,66.69
2022-11-15T23:38:56.552Z,65.91
2022-11-15T23:41:24.376Z,66.33
2022-11-15T23:43:52.097Z,65.89
2022-11-15T23:46:19.875Z,66.35
2022-11-15T23:48:47.331Z,66.36
2022-11-15T23:51:14.665Z,66.69
2022-11-15T23:53:42.595Z,66.51
2022-11-15T23:56:14.960Z,66.50
2022-11-15T23:58:43.243Z,66.35
